sensor_id;sensor_type;location;lat;lon;timestamp;P1;durP1;ratioP1;P2;durP2;ratioP2
82990;SDS011;72806;50.832;4.864;2023-11-18T00:00:22;17.20;;;9.88;;
82990;SDS011;72806;50.832;4.864;2023-11-18T00:02:49;14.30;;;10.05;;
82990;SDS011;72806;50.832;4.864;2023-11-18T00:05:16;22.05;;;10.65;;
82990;SDS011;72806;50.832;4.864;2023-11-18T00:07:45;16.23;;;10.65;;
82990;SDS011;72806;50.832;4.864;2023-11-18T00:10:12;17.23;;;10.88;;
82990;SDS011;72806;50.832;4.864;2023-11-18T00:12:39;14.82;;;10.80;;
82990;SDS011;72806;50.832;4.864;2023-11-18T00:15:06;15.95;;;9.95;;
82990;SDS011;72806;50.832;4.864;2023-11-18T00:17:35;16.27;;;10.70;;
82990;SDS011;72806;50.832;4.864;2023-11-18T00:20:04;17.42;;;11.32;;
82990;SDS011;72806;50.832;4.864;2023-11-18T00:22:34;22.42;;;10.88;;
82990;SDS011;72806;50.832;4.864;2023-11-18T00:25:03;19.00;;;10.52;;
82990;SDS011;72806;50.832;4.864;2023-11-18T00:27:32;16.50;;;10.77;;
82990;SDS011;72806;50.832;4.864;2023-11-18T00:30:01;20.13;;;10.77;;
82990;SDS011;72806;50.832;4.864;2023-11-18T00:32:30;17.40;;;10.38;;
82990;SDS011;72806;50.832;4.864;2023-11-18T00:34:57;13.77;;;10.18;;
82990;SDS011;72806;50.832;4.864;2023-11-18T00:37:26;19.80;;;11.25;;
82990;SDS011;72806;50.832;4.864;2023-11-18T00:39:53;17.35;;;11.50;;
82990;SDS011;72806;50.832;4.864;2023-11-18T00:42:21;16.35;;;10.45;;
82990;SDS011;72806;50.832;4.864;2023-11-18T00:44:48;23.10;;;10.73;;
82990;SDS011;72806;50.832;4.864;2023-11-18T00:47:15;16.10;;;9.55;;
82990;SDS011;72806;50.832;4.864;2023-11-18T00:49:42;21.55;;;10.45;;
82990;SDS011;72806;50.832;4.864;2023-11-18T00:52:09;19.70;;;10.93;;
82990;SDS011;72806;50.832;4.864;2023-11-18T00:54:37;15.57;;;10.30;;
82990;SDS011;72806;50.832;4.864;2023-11-18T00:57:04;17.17;;;9.77;;
82990;SDS011;72806;50.832;4.864;2023-11-18T00:59:32;16.73;;;10.35;;
82990;SDS011;72806;50.832;4.864;2023-11-18T01:01:59;20.20;;;10.52;;
82990;SDS011;72806;50.832;4.864;2023-11-18T01:04:28;16.40;;;10.30;;
82990;SDS011;72806;50.832;4.864;2023-11-18T01:06:58;16.13;;;10.65;;
82990;SDS011;72806;50.832;4.864;2023-11-18T01:09:25;20.80;;;11.02;;
82990;SDS011;72806;50.832;4.864;2023-11-18T01:11:52;18.70;;;9.88;;
82990;SDS011;72806;50.832;4.864;2023-11-18T01:14:19;21.35;;;10.70;;
82990;SDS011;72806;50.832;4.864;2023-11-18T01:16:49;18.02;;;10.57;;
82990;SDS011;72806;50.832;4.864;2023-11-18T01:19:17;19.25;;;11.48;;
82990;SDS011;72806;50.832;4.864;2023-11-18T01:21:45;15.88;;;9.38;;
82990;SDS011;72806;50.832;4.864;2023-11-18T01:24:12;20.25;;;10.48;;
82990;SDS011;72806;50.832;4.864;2023-11-18T01:26:41;16.10;;;10.35;;
82990;SDS011;72806;50.832;4.864;2023-11-18T01:29:08;15.63;;;10.55;;
82990;SDS011;72806;50.832;4.864;2023-11-18T01:31:35;19.23;;;11.00;;
82990;SDS011;72806;50.832;4.864;2023-11-18T01:34:03;17.70;;;9.90;;
82990;SDS011;72806;50.832;4.864;2023-11-18T01:36:30;17.48;;;9.82;;
82990;SDS011;72806;50.832;4.864;2023-11-18T01:38:57;16.15;;;9.95;;
82990;SDS011;72806;50.832;4.864;2023-11-18T01:41:24;18.98;;;9.63;;
82990;SDS011;72806;50.832;4.864;2023-11-18T01:43:51;17.52;;;10.77;;
82990;SDS011;72806;50.832;4.864;2023-11-18T01:46:19;17.67;;;10.07;;
82990;SDS011;72806;50.832;4.864;2023-11-18T01:48:48;19.30;;;10.38;;
82990;SDS011;72806;50.832;4.864;2023-11-18T01:51:18;18.73;;;9.90;;
82990;SDS011;72806;50.832;4.864;2023-11-18T01:53:46;16.83;;;10.73;;
82990;SDS011;72806;50.832;4.864;2023-11-18T01:56:15;18.50;;;9.73;;
82990;SDS011;72806;50.832;4.864;2023-11-18T01:58:44;18.13;;;9.77;;
82990;SDS011;72806;50.832;4.864;2023-11-18T02:01:11;18.45;;;9.55;;
82990;SDS011;72806;50.832;4.864;2023-11-18T02:03:42;18.58;;;9.45;;
82990;SDS011;72806;50.832;4.864;2023-11-18T02:06:10;14.88;;;8.50;;
82990;SDS011;72806;50.832;4.864;2023-11-18T02:08:38;17.55;;;9.57;;
82990;SDS011;72806;50.832;4.864;2023-11-18T02:11:09;16.05;;;8.73;;
82990;SDS011;72806;50.832;4.864;2023-11-18T02:13:40;14.55;;;8.95;;
82990;SDS011;72806;50.832;4.864;2023-11-18T02:16:09;13.35;;;8.35;;
82990;SDS011;72806;50.832;4.864;2023-11-18T02:18:38;13.50;;;8.52;;
82990;SDS011;72806;50.832;4.864;2023-11-18T02:21:08;14.07;;;7.90;;
82990;SDS011;72806;50.832;4.864;2023-11-18T02:23:40;14.73;;;8.10;;
82990;SDS011;72806;50.832;4.864;2023-11-18T02:26:09;15.93;;;8.30;;
82990;SDS011;72806;50.832;4.864;2023-11-18T02:28:36;15.15;;;7.80;;
82990;SDS011;72806;50.832;4.864;2023-11-18T02:31:04;17.63;;;8.10;;
82990;SDS011;72806;50.832;4.864;2023-11-18T02:33:40;10.98;;;7.43;;
82990;SDS011;72806;50.832;4.864;2023-11-18T02:36:18;15.27;;;8.00;;
82990;SDS011;72806;50.832;4.864;2023-11-18T02:38:50;13.02;;;7.15;;
82990;SDS011;72806;50.832;4.864;2023-11-18T02:41:21;14.75;;;8.60;;
82990;SDS011;72806;50.832;4.864;2023-11-18T02:43:49;16.92;;;7.85;;
82990;SDS011;72806;50.832;4.864;2023-11-18T02:46:16;12.75;;;7.68;;
82990;SDS011;72806;50.832;4.864;2023-11-18T02:48:44;17.52;;;7.40;;
82990;SDS011;72806;50.832;4.864;2023-11-18T02:51:11;14.15;;;7.63;;
82990;SDS011;72806;50.832;4.864;2023-11-18T02:53:38;12.45;;;7.60;;
82990;SDS011;72806;50.832;4.864;2023-11-18T02:56:06;14.80;;;7.80;;
82990;SDS011;72806;50.832;4.864;2023-11-18T02:58:35;12.38;;;7.20;;
82990;SDS011;72806;50.832;4.864;2023-11-18T03:01:03;13.43;;;6.88;;
82990;SDS011;72806;50.832;4.864;2023-11-18T03:03:30;11.95;;;6.72;;
82990;SDS011;72806;50.832;4.864;2023-11-18T03:05:57;15.52;;;7.00;;
82990;SDS011;72806;50.832;4.864;2023-11-18T03:08:25;12.02;;;7.18;;
82990;SDS011;72806;50.832;4.864;2023-11-18T03:10:54;15.23;;;7.65;;
82990;SDS011;72806;50.832;4.864;2023-11-18T03:13:24;10.75;;;6.53;;
82990;SDS011;72806;50.832;4.864;2023-11-18T03:15:52;10.05;;;7.20;;
82990;SDS011;72806;50.832;4.864;2023-11-18T03:18:19;16.08;;;7.57;;
82990;SDS011;72806;50.832;4.864;2023-11-18T03:20:46;11.23;;;6.68;;
82990;SDS011;72806;50.832;4.864;2023-11-18T03:23:14;10.65;;;6.97;;
82990;SDS011;72806;50.832;4.864;2023-11-18T03:25:41;14.07;;;7.30;;
82990;SDS011;72806;50.832;4.864;2023-11-18T03:28:08;8.57;;;6.43;;
82990;SDS011;72806;50.832;4.864;2023-11-18T03:30:35;8.27;;;6.43;;
82990;SDS011;72806;50.832;4.864;2023-11-18T03:33:04;14.73;;;6.90;;
82990;SDS011;72806;50.832;4.864;2023-11-18T03:35:35;9.90;;;6.13;;
82990;SDS011;72806;50.832;4.864;2023-11-18T03:38:03;9.25;;;6.35;;
82990;SDS011;72806;50.832;4.864;2023-11-18T03:40:30;8.43;;;5.32;;
82990;SDS011;72806;50.832;4.864;2023-11-18T03:43:00;12.50;;;7.07;;
82990;SDS011;72806;50.832;4.864;2023-11-18T03:45:28;11.45;;;6.35;;
82990;SDS011;72806;50.832;4.864;2023-11-18T03:47:55;12.40;;;6.05;;
82990;SDS011;72806;50.832;4.864;2023-11-18T03:50:23;9.20;;;6.18;;
82990;SDS011;72806;50.832;4.864;2023-11-18T03:52:51;11.00;;;6.25;;
82990;SDS011;72806;50.832;4.864;2023-11-18T03:55:18;10.60;;;6.10;;
82990;SDS011;72806;50.832;4.864;2023-11-18T03:57:45;10.65;;;5.82;;
82990;SDS011;72806;50.832;4.864;2023-11-18T04:00:15;14.52;;;6.38;;
82990;SDS011;72806;50.832;4.864;2023-11-18T04:02:43;9.05;;;5.65;;
82990;SDS011;72806;50.832;4.864;2023-11-18T04:05:11;10.35;;;5.60;;
82990;SDS011;72806;50.832;4.864;2023-11-18T04:07:39;8.90;;;5.55;;
82990;SDS011;72806;50.832;4.864;2023-11-18T04:10:07;10.38;;;5.30;;
82990;SDS011;72806;50.832;4.864;2023-11-18T04:12:35;9.40;;;5.28;;
82990;SDS011;72806;50.832;4.864;2023-11-18T04:15:03;10.73;;;5.47;;
82990;SDS011;72806;50.832;4.864;2023-11-18T04:17:31;8.75;;;4.70;;
82990;SDS011;72806;50.832;4.864;2023-11-18T04:19:58;7.57;;;4.80;;
82990;SDS011;72806;50.832;4.864;2023-11-18T04:22:25;10.38;;;4.65;;
82990;SDS011;72806;50.832;4.864;2023-11-18T04:24:53;8.05;;;4.75;;
82990;SDS011;72806;50.832;4.864;2023-11-18T04:27:20;7.97;;;4.00;;
82990;SDS011;72806;50.832;4.864;2023-11-18T04:29:47;7.78;;;4.65;;
82990;SDS011;72806;50.832;4.864;2023-11-18T04:32:15;9.02;;;4.35;;
82990;SDS011;72806;50.832;4.864;2023-11-18T04:34:42;7.32;;;4.30;;
82990;SDS011;72806;50.832;4.864;2023-11-18T04:37:09;7.88;;;4.30;;
82990;SDS011;72806;50.832;4.864;2023-11-18T04:39:36;7.72;;;4.00;;
82990;SDS011;72806;50.832;4.864;2023-11-18T04:42:04;6.43;;;4.13;;
82990;SDS011;72806;50.832;4.864;2023-11-18T04:44:32;11.20;;;4.25;;
82990;SDS011;72806;50.832;4.864;2023-11-18T04:46:59;7.72;;;3.65;;
82990;SDS011;72806;50.832;4.864;2023-11-18T04:49:26;8.90;;;3.55;;
82990;SDS011;72806;50.832;4.864;2023-11-18T04:51:53;7.35;;;3.50;;
82990;SDS011;72806;50.832;4.864;2023-11-18T04:54:20;11.43;;;3.92;;
82990;SDS011;72806;50.832;4.864;2023-11-18T04:56:47;7.53;;;3.88;;
82990;SDS011;72806;50.832;4.864;2023-11-18T04:59:15;6.78;;;3.00;;
82990;SDS011;72806;50.832;4.864;2023-11-18T05:01:43;8.85;;;3.55;;
82990;SDS011;72806;50.832;4.864;2023-11-18T05:04:10;8.35;;;3.60;;
82990;SDS011;72806;50.832;4.864;2023-11-18T05:06:37;6.35;;;2.83;;
82990;SDS011;72806;50.832;4.864;2023-11-18T05:09:04;8.50;;;3.35;;
82990;SDS011;72806;50.832;4.864;2023-11-18T05:11:32;6.38;;;2.88;;
82990;SDS011;72806;50.832;4.864;2023-11-18T05:14:00;6.78;;;3.17;;
82990;SDS011;72806;50.832;4.864;2023-11-18T05:16:30;6.30;;;3.13;;
82990;SDS011;72806;50.832;4.864;2023-11-18T05:18:57;5.53;;;3.30;;
82990;SDS011;72806;50.832;4.864;2023-11-18T05:21:24;9.35;;;3.40;;
82990;SDS011;72806;50.832;4.864;2023-11-18T05:23:51;10.35;;;3.70;;
82990;SDS011;72806;50.832;4.864;2023-11-18T05:26:18;7.82;;;2.95;;
82990;SDS011;72806;50.832;4.864;2023-11-18T05:28:45;4.70;;;3.20;;
82990;SDS011;72806;50.832;4.864;2023-11-18T05:31:14;6.85;;;3.28;;
82990;SDS011;72806;50.832;4.864;2023-11-18T05:33:43;6.10;;;2.90;;
82990;SDS011;72806;50.832;4.864;2023-11-18T05:36:10;8.98;;;2.92;;
82990;SDS011;72806;50.832;4.864;2023-11-18T05:38:37;5.55;;;2.63;;
82990;SDS011;72806;50.832;4.864;2023-11-18T05:41:04;8.05;;;2.97;;
82990;SDS011;72806;50.832;4.864;2023-11-18T05:43:41;6.03;;;2.55;;
82990;SDS011;72806;50.832;4.864;2023-11-18T05:46:16;8.20;;;2.70;;
82990;SDS011;72806;50.832;4.864;2023-11-18T05:48:47;8.48;;;2.72;;
82990;SDS011;72806;50.832;4.864;2023-11-18T05:51:18;7.80;;;2.90;;
82990;SDS011;72806;50.832;4.864;2023-11-18T05:53:46;4.20;;;2.88;;
82990;SDS011;72806;50.832;4.864;2023-11-18T05:56:14;5.40;;;2.72;;
82990;SDS011;72806;50.832;4.864;2023-11-18T05:58:42;7.55;;;2.83;;
82990;SDS011;72806;50.832;4.864;2023-11-18T06:01:09;6.15;;;2.60;;
82990;SDS011;72806;50.832;4.864;2023-11-18T06:03:37;7.47;;;2.85;;
82990;SDS011;72806;50.832;4.864;2023-11-18T06:06:06;5.43;;;2.10;;
82990;SDS011;72806;50.832;4.864;2023-11-18T06:08:34;5.03;;;2.65;;
82990;SDS011;72806;50.832;4.864;2023-11-18T06:11:04;10.32;;;3.10;;
82990;SDS011;72806;50.832;4.864;2023-11-18T06:13:38;5.65;;;2.58;;
82990;SDS011;72806;50.832;4.864;2023-11-18T06:16:08;5.07;;;2.53;;
82990;SDS011;72806;50.832;4.864;2023-11-18T06:18:39;4.45;;;2.08;;
82990;SDS011;72806;50.832;4.864;2023-11-18T06:21:11;6.45;;;2.33;;
82990;SDS011;72806;50.832;4.864;2023-11-18T06:23:39;4.85;;;2.20;;
82990;SDS011;72806;50.832;4.864;2023-11-18T06:26:06;5.15;;;2.80;;
82990;SDS011;72806;50.832;4.864;2023-11-18T06:28:35;3.38;;;2.25;;
82990;SDS011;72806;50.832;4.864;2023-11-18T06:31:03;12.93;;;2.50;;
82990;SDS011;72806;50.832;4.864;2023-11-18T06:33:35;5.15;;;2.20;;
82990;SDS011;72806;50.832;4.864;2023-11-18T06:36:05;8.32;;;2.35;;
82990;SDS011;72806;50.832;4.864;2023-11-18T06:38:34;9.02;;;2.00;;
82990;SDS011;72806;50.832;4.864;2023-11-18T06:41:02;5.32;;;2.10;;
82990;SDS011;72806;50.832;4.864;2023-11-18T06:43:30;6.82;;;2.03;;
82990;SDS011;72806;50.832;4.864;2023-11-18T06:46:11;3.20;;;1.80;;
82990;SDS011;72806;50.832;4.864;2023-11-18T06:48:39;5.85;;;2.03;;
82990;SDS011;72806;50.832;4.864;2023-11-18T06:51:06;6.25;;;2.22;;
82990;SDS011;72806;50.832;4.864;2023-11-18T06:53:35;8.15;;;2.33;;
82990;SDS011;72806;50.832;4.864;2023-11-18T06:56:02;6.28;;;2.58;;
82990;SDS011;72806;50.832;4.864;2023-11-18T06:58:30;7.30;;;2.22;;
82990;SDS011;72806;50.832;4.864;2023-11-18T07:00:57;5.72;;;2.30;;
82990;SDS011;72806;50.832;4.864;2023-11-18T07:03:24;5.72;;;1.90;;
82990;SDS011;72806;50.832;4.864;2023-11-18T07:05:51;5.13;;;2.20;;
82990;SDS011;72806;50.832;4.864;2023-11-18T07:08:18;4.65;;;2.42;;
82990;SDS011;72806;50.832;4.864;2023-11-18T07:10:46;3.25;;;1.98;;
82990;SDS011;72806;50.832;4.864;2023-11-18T07:13:14;8.70;;;2.15;;
82990;SDS011;72806;50.832;4.864;2023-11-18T07:15:41;6.75;;;2.33;;
82990;SDS011;72806;50.832;4.864;2023-11-18T07:18:10;7.45;;;2.60;;
82990;SDS011;72806;50.832;4.864;2023-11-18T07:20:37;7.22;;;3.05;;
82990;SDS011;72806;50.832;4.864;2023-11-18T07:23:04;7.13;;;2.15;;
82990;SDS011;72806;50.832;4.864;2023-11-18T07:25:31;7.65;;;2.92;;
82990;SDS011;72806;50.832;4.864;2023-11-18T07:28:00;7.35;;;2.45;;
82990;SDS011;72806;50.832;4.864;2023-11-18T07:30:27;5.05;;;2.65;;
82990;SDS011;72806;50.832;4.864;2023-11-18T07:32:55;10.07;;;2.80;;
82990;SDS011;72806;50.832;4.864;2023-11-18T07:35:24;6.00;;;2.45;;
82990;SDS011;72806;50.832;4.864;2023-11-18T07:37:52;5.35;;;2.78;;
82990;SDS011;72806;50.832;4.864;2023-11-18T07:40:19;6.28;;;2.63;;
82990;SDS011;72806;50.832;4.864;2023-11-18T07:42:53;8.50;;;3.15;;
82990;SDS011;72806;50.832;4.864;2023-11-18T07:45:22;4.40;;;2.58;;
82990;SDS011;72806;50.832;4.864;2023-11-18T07:47:49;7.13;;;2.83;;
82990;SDS011;72806;50.832;4.864;2023-11-18T07:50:17;6.50;;;2.72;;
82990;SDS011;72806;50.832;4.864;2023-11-18T07:52:45;11.20;;;3.13;;
82990;SDS011;72806;50.832;4.864;2023-11-18T07:55:13;4.05;;;2.38;;
82990;SDS011;72806;50.832;4.864;2023-11-18T07:57:41;5.00;;;2.85;;
82990;SDS011;72806;50.832;4.864;2023-11-18T08:00:12;10.93;;;3.08;;
82990;SDS011;72806;50.832;4.864;2023-11-18T08:02:43;5.63;;;3.05;;
82990;SDS011;72806;50.832;4.864;2023-11-18T08:05:10;5.82;;;3.03;;
82990;SDS011;72806;50.832;4.864;2023-11-18T08:07:39;4.60;;;3.08;;
82990;SDS011;72806;50.832;4.864;2023-11-18T08:10:06;8.45;;;2.83;;
82990;SDS011;72806;50.832;4.864;2023-11-18T08:12:37;7.07;;;3.00;;
82990;SDS011;72806;50.832;4.864;2023-11-18T08:15:05;13.32;;;3.65;;
82990;SDS011;72806;50.832;4.864;2023-11-18T08:17:34;5.80;;;2.70;;
82990;SDS011;72806;50.832;4.864;2023-11-18T08:20:02;8.73;;;3.20;;
82990;SDS011;72806;50.832;4.864;2023-11-18T08:22:32;10.57;;;3.45;;
82990;SDS011;72806;50.832;4.864;2023-11-18T08:24:59;6.97;;;3.03;;
82990;SDS011;72806;50.832;4.864;2023-11-18T08:27:26;5.68;;;3.25;;
82990;SDS011;72806;50.832;4.864;2023-11-18T08:29:53;8.00;;;3.38;;
82990;SDS011;72806;50.832;4.864;2023-11-18T08:32:20;7.18;;;3.35;;
82990;SDS011;72806;50.832;4.864;2023-11-18T08:34:50;9.73;;;3.08;;
82990;SDS011;72806;50.832;4.864;2023-11-18T08:37:18;11.18;;;3.25;;
82990;SDS011;72806;50.832;4.864;2023-11-18T08:39:46;5.28;;;2.85;;
82990;SDS011;72806;50.832;4.864;2023-11-18T08:42:13;10.93;;;3.53;;
82990;SDS011;72806;50.832;4.864;2023-11-18T08:44:41;7.78;;;3.05;;
82990;SDS011;72806;50.832;4.864;2023-11-18T08:47:08;9.70;;;3.65;;
82990;SDS011;72806;50.832;4.864;2023-11-18T08:49:37;5.60;;;3.40;;
82990;SDS011;72806;50.832;4.864;2023-11-18T08:52:05;6.13;;;3.10;;
82990;SDS011;72806;50.832;4.864;2023-11-18T08:54:36;8.75;;;3.58;;
82990;SDS011;72806;50.832;4.864;2023-11-18T08:57:04;5.57;;;3.38;;
82990;SDS011;72806;50.832;4.864;2023-11-18T08:59:48;7.45;;;3.35;;
82990;SDS011;72806;50.832;4.864;2023-11-18T09:02:17;5.35;;;3.22;;
82990;SDS011;72806;50.832;4.864;2023-11-18T09:04:48;10.45;;;3.58;;
82990;SDS011;72806;50.832;4.864;2023-11-18T09:07:15;11.13;;;3.38;;
82990;SDS011;72806;50.832;4.864;2023-11-18T09:09:45;9.18;;;3.38;;
82990;SDS011;72806;50.832;4.864;2023-11-18T09:12:15;8.65;;;3.50;;
82990;SDS011;72806;50.832;4.864;2023-11-18T09:14:44;7.55;;;3.17;;
82990;SDS011;72806;50.832;4.864;2023-11-18T09:17:12;5.70;;;3.03;;
82990;SDS011;72806;50.832;4.864;2023-11-18T09:19:40;9.50;;;3.90;;
82990;SDS011;72806;50.832;4.864;2023-11-18T09:22:07;9.30;;;3.45;;
82990;SDS011;72806;50.832;4.864;2023-11-18T09:24:38;9.95;;;3.88;;
82990;SDS011;72806;50.832;4.864;2023-11-18T09:27:06;11.00;;;3.72;;
82990;SDS011;72806;50.832;4.864;2023-11-18T09:29:34;8.85;;;4.00;;
82990;SDS011;72806;50.832;4.864;2023-11-18T09:32:02;8.55;;;3.47;;
82990;SDS011;72806;50.832;4.864;2023-11-18T09:34:31;11.40;;;3.72;;
82990;SDS011;72806;50.832;4.864;2023-11-18T09:36:58;9.95;;;3.17;;
82990;SDS011;72806;50.832;4.864;2023-11-18T09:39:25;5.85;;;3.45;;
82990;SDS011;72806;50.832;4.864;2023-11-18T09:42:04;8.18;;;3.50;;
82990;SDS011;72806;50.832;4.864;2023-11-18T09:44:35;8.45;;;3.80;;
82990;SDS011;72806;50.832;4.864;2023-11-18T09:47:04;5.40;;;3.28;;
82990;SDS011;72806;50.832;4.864;2023-11-18T09:49:37;10.23;;;3.72;;
82990;SDS011;72806;50.832;4.864;2023-11-18T09:52:13;7.93;;;3.97;;
82990;SDS011;72806;50.832;4.864;2023-11-18T09:54:49;11.10;;;3.80;;
82990;SDS011;72806;50.832;4.864;2023-11-18T09:57:26;6.00;;;3.17;;
82990;SDS011;72806;50.832;4.864;2023-11-18T10:00:00;9.73;;;3.35;;
82990;SDS011;72806;50.832;4.864;2023-11-18T10:02:44;8.85;;;4.28;;
82990;SDS011;72806;50.832;4.864;2023-11-18T10:05:13;11.13;;;4.40;;
82990;SDS011;72806;50.832;4.864;2023-11-18T10:07:44;11.50;;;4.05;;
82990;SDS011;72806;50.832;4.864;2023-11-18T10:10:13;8.85;;;4.07;;
82990;SDS011;72806;50.832;4.864;2023-11-18T10:12:42;7.05;;;3.72;;
82990;SDS011;72806;50.832;4.864;2023-11-18T10:15:11;10.88;;;4.20;;
82990;SDS011;72806;50.832;4.864;2023-11-18T10:17:41;7.90;;;3.83;;
82990;SDS011;72806;50.832;4.864;2023-11-18T10:20:20;8.98;;;4.38;;
82990;SDS011;72806;50.832;4.864;2023-11-18T10:23:00;7.72;;;3.65;;
82990;SDS011;72806;50.832;4.864;2023-11-18T10:25:35;9.98;;;3.65;;
82990;SDS011;72806;50.832;4.864;2023-11-18T10:28:08;6.03;;;3.92;;
82990;SDS011;72806;50.832;4.864;2023-11-18T10:30:46;5.50;;;3.42;;
82990;SDS011;72806;50.832;4.864;2023-11-18T10:33:15;8.43;;;3.55;;
82990;SDS011;72806;50.832;4.864;2023-11-18T10:35:49;5.47;;;3.30;;
82990;SDS011;72806;50.832;4.864;2023-11-18T10:38:21;11.85;;;3.35;;
82990;SDS011;72806;50.832;4.864;2023-11-18T10:40:52;6.28;;;3.38;;
82990;SDS011;72806;50.832;4.864;2023-11-18T10:43:21;5.47;;;2.80;;
82990;SDS011;72806;50.832;4.864;2023-11-18T10:45:50;7.28;;;3.13;;
82990;SDS011;72806;50.832;4.864;2023-11-18T10:48:18;8.18;;;3.03;;
82990;SDS011;72806;50.832;4.864;2023-11-18T10:50:46;7.15;;;3.03;;
82990;SDS011;72806;50.832;4.864;2023-11-18T10:53:15;5.50;;;2.88;;
82990;SDS011;72806;50.832;4.864;2023-11-18T10:55:42;3.70;;;2.78;;
82990;SDS011;72806;50.832;4.864;2023-11-18T10:58:09;4.03;;;2.30;;
82990;SDS011;72806;50.832;4.864;2023-11-18T11:00:47;7.40;;;2.70;;
82990;SDS011;72806;50.832;4.864;2023-11-18T11:03:16;4.00;;;2.50;;
82990;SDS011;72806;50.832;4.864;2023-11-18T11:05:43;5.40;;;3.05;;
82990;SDS011;72806;50.832;4.864;2023-11-18T11:08:11;4.80;;;3.10;;
82990;SDS011;72806;50.832;4.864;2023-11-18T11:10:41;4.40;;;2.63;;
82990;SDS011;72806;50.832;4.864;2023-11-18T11:13:09;3.95;;;2.50;;
82990;SDS011;72806;50.832;4.864;2023-11-18T11:15:42;4.25;;;2.63;;
82990;SDS011;72806;50.832;4.864;2023-11-18T11:18:12;4.38;;;2.13;;
82990;SDS011;72806;50.832;4.864;2023-11-18T11:20:52;5.20;;;2.70;;
82990;SDS011;72806;50.832;4.864;2023-11-18T11:23:30;5.57;;;2.38;;
82990;SDS011;72806;50.832;4.864;2023-11-18T11:26:12;7.55;;;2.28;;
82990;SDS011;72806;50.832;4.864;2023-11-18T11:28:49;3.65;;;1.63;;
82990;SDS011;72806;50.832;4.864;2023-11-18T11:31:26;4.70;;;2.08;;
82990;SDS011;72806;50.832;4.864;2023-11-18T11:34:01;4.05;;;2.10;;
82990;SDS011;72806;50.832;4.864;2023-11-18T11:36:34;4.15;;;2.00;;
82990;SDS011;72806;50.832;4.864;2023-11-18T11:39:06;3.20;;;1.88;;
82990;SDS011;72806;50.832;4.864;2023-11-18T11:41:41;2.80;;;2.10;;
82990;SDS011;72806;50.832;4.864;2023-11-18T11:44:11;4.50;;;2.45;;
82990;SDS011;72806;50.832;4.864;2023-11-18T11:46:39;4.45;;;2.10;;
82990;SDS011;72806;50.832;4.864;2023-11-18T11:49:09;4.00;;;2.10;;
82990;SDS011;72806;50.832;4.864;2023-11-18T11:51:47;2.88;;;1.77;;
82990;SDS011;72806;50.832;4.864;2023-11-18T11:54:17;3.50;;;2.08;;
82990;SDS011;72806;50.832;4.864;2023-11-18T11:56:47;2.78;;;1.73;;
82990;SDS011;72806;50.832;4.864;2023-11-18T11:59:34;2.00;;;1.30;;
82990;SDS011;72806;50.832;4.864;2023-11-18T12:02:02;3.65;;;1.70;;
82990;SDS011;72806;50.832;4.864;2023-11-18T12:04:34;6.93;;;2.42;;
82990;SDS011;72806;50.832;4.864;2023-11-18T12:07:03;2.75;;;1.67;;
82990;SDS011;72806;50.832;4.864;2023-11-18T12:09:31;2.72;;;1.75;;
82990;SDS011;72806;50.832;4.864;2023-11-18T12:12:03;5.15;;;2.05;;
82990;SDS011;72806;50.832;4.864;2023-11-18T12:14:48;2.47;;;1.88;;
82990;SDS011;72806;50.832;4.864;2023-11-18T12:17:17;5.97;;;2.40;;
82990;SDS011;72806;50.832;4.864;2023-11-18T12:19:49;2.63;;;1.58;;
82990;SDS011;72806;50.832;4.864;2023-11-18T12:22:23;7.15;;;1.45;;
82990;SDS011;72806;50.832;4.864;2023-11-18T12:28:11;3.47;;;1.20;;
82990;SDS011;72806;50.832;4.864;2023-11-18T12:30:41;2.55;;;0.98;;
82990;SDS011;72806;50.832;4.864;2023-11-18T12:33:22;1.83;;;1.30;;
82990;SDS011;72806;50.832;4.864;2023-11-18T12:42:01;2.15;;;1.40;;
82990;SDS011;72806;50.832;4.864;2023-11-18T12:44:35;3.85;;;2.40;;
82990;SDS011;72806;50.832;4.864;2023-11-18T12:47:04;3.40;;;2.35;;
82990;SDS011;72806;50.832;4.864;2023-11-18T12:49:40;4.10;;;1.95;;
82990;SDS011;72806;50.832;4.864;2023-11-18T12:52:09;4.40;;;2.75;;
82990;SDS011;72806;50.832;4.864;2023-11-18T12:54:40;3.15;;;1.83;;
82990;SDS011;72806;50.832;4.864;2023-11-18T12:57:08;3.95;;;2.50;;
82990;SDS011;72806;50.832;4.864;2023-11-18T12:59:39;3.10;;;2.17;;
82990;SDS011;72806;50.832;4.864;2023-11-18T13:02:07;6.05;;;2.47;;
82990;SDS011;72806;50.832;4.864;2023-11-18T13:04:38;3.30;;;1.95;;
82990;SDS011;72806;50.832;4.864;2023-11-18T13:07:06;2.35;;;1.33;;
82990;SDS011;72806;50.832;4.864;2023-11-18T13:09:37;6.05;;;3.13;;
82990;SDS011;72806;50.832;4.864;2023-11-18T13:12:06;8.43;;;4.82;;
82990;SDS011;72806;50.832;4.864;2023-11-18T13:14:34;8.57;;;4.75;;
82990;SDS011;72806;50.832;4.864;2023-11-18T13:17:02;2.58;;;1.48;;
82990;SDS011;72806;50.832;4.864;2023-11-18T13:19:31;3.50;;;1.95;;
82990;SDS011;72806;50.832;4.864;2023-11-18T13:21:59;4.20;;;2.00;;
82990;SDS011;72806;50.832;4.864;2023-11-18T13:24:29;2.28;;;1.48;;
82990;SDS011;72806;50.832;4.864;2023-11-18T13:26:58;5.57;;;2.33;;
82990;SDS011;72806;50.832;4.864;2023-11-18T13:29:28;3.53;;;2.05;;
82990;SDS011;72806;50.832;4.864;2023-11-18T13:31:56;3.55;;;1.75;;
82990;SDS011;72806;50.832;4.864;2023-11-18T13:34:25;4.18;;;1.77;;
82990;SDS011;72806;50.832;4.864;2023-11-18T13:36:55;4.07;;;2.53;;
82990;SDS011;72806;50.832;4.864;2023-11-18T13:39:22;5.40;;;2.20;;
82990;SDS011;72806;50.832;4.864;2023-11-18T13:41:52;4.45;;;2.60;;
82990;SDS011;72806;50.832;4.864;2023-11-18T13:47:09;1.88;;;1.42;;
82990;SDS011;72806;50.832;4.864;2023-11-18T13:49:37;1.25;;;1.15;;
82990;SDS011;72806;50.832;4.864;2023-11-18T13:52:05;3.28;;;1.48;;
82990;SDS011;72806;50.832;4.864;2023-11-18T13:54:34;2.03;;;1.08;;
82990;SDS011;72806;50.832;4.864;2023-11-18T13:57:02;0.60;;;0.60;;
82990;SDS011;72806;50.832;4.864;2023-11-18T13:59:29;0.77;;;0.60;;
82990;SDS011;72806;50.832;4.864;2023-11-18T14:01:58;0.80;;;0.60;;
82990;SDS011;72806;50.832;4.864;2023-11-18T14:04:27;1.15;;;0.50;;
82990;SDS011;72806;50.832;4.864;2023-11-18T14:06:56;3.60;;;1.33;;
82990;SDS011;72806;50.832;4.864;2023-11-18T14:09:24;2.63;;;1.33;;
82990;SDS011;72806;50.832;4.864;2023-11-18T14:11:52;5.97;;;2.28;;
82990;SDS011;72806;50.832;4.864;2023-11-18T14:14:20;1.65;;;1.00;;
82990;SDS011;72806;50.832;4.864;2023-11-18T14:16:47;0.75;;;0.73;;
82990;SDS011;72806;50.832;4.864;2023-11-18T14:19:15;1.70;;;0.50;;
82990;SDS011;72806;50.832;4.864;2023-11-18T14:21:43;0.50;;;0.50;;
82990;SDS011;72806;50.832;4.864;2023-11-18T14:24:10;0.50;;;0.50;;
82990;SDS011;72806;50.832;4.864;2023-11-18T14:26:38;0.40;;;0.40;;
82990;SDS011;72806;50.832;4.864;2023-11-18T14:29:06;0.63;;;0.50;;
82990;SDS011;72806;50.832;4.864;2023-11-18T14:31:33;1.10;;;0.40;;
82990;SDS011;72806;50.832;4.864;2023-11-18T14:34:01;0.70;;;0.50;;
82990;SDS011;72806;50.832;4.864;2023-11-18T14:36:30;0.43;;;0.40;;
82990;SDS011;72806;50.832;4.864;2023-11-18T14:38:57;0.68;;;0.47;;
82990;SDS011;72806;50.832;4.864;2023-11-18T14:41:24;1.17;;;0.30;;
82990;SDS011;72806;50.832;4.864;2023-11-18T14:43:52;0.40;;;0.40;;
82990;SDS011;72806;50.832;4.864;2023-11-18T14:46:19;0.30;;;0.30;;
82990;SDS011;72806;50.832;4.864;2023-11-18T14:48:46;0.50;;;0.50;;
82990;SDS011;72806;50.832;4.864;2023-11-18T14:51:14;0.75;;;0.40;;
82990;SDS011;72806;50.832;4.864;2023-11-18T14:53:42;0.52;;;0.50;;
82990;SDS011;72806;50.832;4.864;2023-11-18T14:56:10;1.20;;;0.50;;
82990;SDS011;72806;50.832;4.864;2023-11-18T14:58:38;0.50;;;0.40;;
82990;SDS011;72806;50.832;4.864;2023-11-18T15:01:05;1.20;;;0.45;;
82990;SDS011;72806;50.832;4.864;2023-11-18T15:03:33;0.43;;;0.43;;
82990;SDS011;72806;50.832;4.864;2023-11-18T15:06:00;0.60;;;0.60;;